sensor_id;sensor_type;location;lat;lon;timestamp;pressure;altitude;pressure_sealevel;temperature;humidity
59337;BME280;45115;52.002;4.686;2022-08-21T00:00:20;101716.16;;;14.16;100.00
59337;BME280;45115;52.002;4.686;2022-08-21T00:02:50;101718.31;;;14.08;100.00
59337;BME280;45115;52.002;4.686;2022-08-21T00:05:17;101713.78;;;14.04;100.00
59337;BME280;45115;52.002;4.686;2022-08-21T00:07:44;101711.13;;;13.99;100.00
59337;BME280;45115;52.002;4.686;2022-08-21T00:10:11;101713.53;;;14.00;100.00
59337;BME280;45115;52.002;4.686;2022-08-21T00:12:39;101715.63;;;14.03;100.00
59337;BME280;45115;52.002;4.686;2022-08-21T00:15:09;101711.94;;;14.04;100.00
59337;BME280;45115;52.002;4.686;2022-08-21T00:17:36;101712.19;;;14.03;100.00
59337;BME280;45115;52.002;4.686;2022-08-21T00:20:05;101711.38;;;14.07;100.00
59337;BME280;45115;52.002;4.686;2022-08-21T00:22:34;101708.19;;;14.00;100.00
59337;BME280;45115;52.002;4.686;2022-08-21T00:25:01;101712.19;;;14.03;100.00
59337;BME280;45115;52.002;4.686;2022-08-21T00:27:28;101712.44;;;14.01;100.00
59337;BME280;45115;52.002;4.686;2022-08-21T00:29:54;101712.97;;;13.98;100.00
59337;BME280;45115;52.002;4.686;2022-08-21T00:32:24;101704.97;;;13.93;100.00
59337;BME280;45115;52.002;4.686;2022-08-21T00:34:51;101705.78;;;13.88;100.00
59337;BME280;45115;52.002;4.686;2022-08-21T00:37:18;101709.28;;;13.84;100.00
59337;BME280;45115;52.002;4.686;2022-08-21T00:39:45;101707.66;;;13.77;100.00
59337;BME280;45115;52.002;4.686;2022-08-21T00:42:13;101683.41;;;13.74;100.00
59337;BME280;45115;52.002;4.686;2022-08-21T00:44:41;101696.72;;;13.74;100.00
59337;BME280;45115;52.002;4.686;2022-08-21T00:47:08;101698.31;;;13.75;100.00
59337;BME280;45115;52.002;4.686;2022-08-21T00:49:36;101699.94;;;13.71;100.00
59337;BME280;45115;52.002;4.686;2022-08-21T00:52:05;101702.88;;;13.64;100.00
59337;BME280;45115;52.002;4.686;2022-08-21T00:54:33;101696.72;;;13.63;100.00
59337;BME280;45115;52.002;4.686;2022-08-21T00:57:02;101698.06;;;13.66;100.00
59337;BME280;45115;52.002;4.686;2022-08-21T00:59:31;101697.03;;;13.62;100.00
59337;BME280;45115;52.002;4.686;2022-08-21T01:01:59;101700.22;;;13.59;100.00
59337;BME280;45115;52.002;4.686;2022-08-21T01:04:26;101695.94;;;13.52;100.00
59337;BME280;45115;52.002;4.686;2022-08-21T01:06:54;101701.03;;;13.54;100.00
59337;BME280;45115;52.002;4.686;2022-08-21T01:09:21;101697.28;;;13.55;100.00
59337;BME280;45115;52.002;4.686;2022-08-21T01:11:48;101697.28;;;13.55;100.00
59337;BME280;45115;52.002;4.686;2022-08-21T01:14:15;101701.28;;;13.52;100.00
59337;BME280;45115;52.002;4.686;2022-08-21T01:16:45;101700.72;;;13.50;100.00
59337;BME280;45115;52.002;4.686;2022-08-21T01:19:13;101703.41;;;13.55;100.00
59337;BME280;45115;52.002;4.686;2022-08-21T01:21:41;101704.22;;;13.61;100.00
59337;BME280;45115;52.002;4.686;2022-08-21T01:24:08;101704.22;;;13.61;100.00
59337;BME280;45115;52.002;4.686;2022-08-21T01:26:36;101707.13;;;13.65;100.00
59337;BME280;45115;52.002;4.686;2022-08-21T01:29:05;101696.22;;;13.61;100.00
59337;BME280;45115;52.002;4.686;2022-08-21T01:31:35;101703.94;;;13.63;100.00
59337;BME280;45115;52.002;4.686;2022-08-21T01:34:03;101699.41;;;13.63;100.00
59337;BME280;45115;52.002;4.686;2022-08-21T01:36:30;101698.88;;;13.61;100.00
59337;BME280;45115;52.002;4.686;2022-08-21T01:38:59;101705.28;;;13.60;100.00
59337;BME280;45115;52.002;4.686;2022-08-21T01:41:26;101706.34;;;13.69;100.00
59337;BME280;45115;52.002;4.686;2022-08-21T01:43:52;101694.63;;;13.65;100.00
59337;BME280;45115;52.002;4.686;2022-08-21T01:46:19;101698.06;;;13.66;100.00
59337;BME280;45115;52.002;4.686;2022-08-21T01:48:46;101696.22;;;13.61;100.00
59337;BME280;45115;52.002;4.686;2022-08-21T01:51:13;101693.03;;;13.54;100.00
59337;BME280;45115;52.002;4.686;2022-08-21T01:53:39;101695.13;;;13.52;100.00
59337;BME280;45115;52.002;4.686;2022-08-21T01:56:11;101685.81;;;13.49;100.00
59337;BME280;45115;52.002;4.686;2022-08-21T01:58:39;101691.09;;;13.44;100.00
59337;BME280;45115;52.002;4.686;2022-08-21T02:01:06;101682.34;;;13.44;100.00
59337;BME280;45115;52.002;4.686;2022-08-21T02:03:35;101679.09;;;13.41;100.00
59337;BME280;45115;52.002;4.686;2022-08-21T02:06:01;101680.44;;;13.44;100.00
59337;BME280;45115;52.002;4.686;2022-08-21T02:08:28;101681.50;;;13.43;100.00
59337;BME280;45115;52.002;4.686;2022-08-21T02:10:55;101676.47;;;13.52;100.00
59337;BME280;45115;52.002;4.686;2022-08-21T02:13:23;101676.22;;;13.53;100.00
59337;BME280;45115;52.002;4.686;2022-08-21T02:15:50;101665.28;;;13.55;100.00
59337;BME280;45115;52.002;4.686;2022-08-21T02:18:16;101668.22;;;13.53;100.00
59337;BME280;45115;52.002;4.686;2022-08-21T02:20:45;101674.63;;;13.52;100.00
59337;BME280;45115;52.002;4.686;2022-08-21T02:23:14;101666.84;;;13.46;100.00
59337;BME280;45115;52.002;4.686;2022-08-21T02:25:41;101666.84;;;13.46;100.00
59337;BME280;45115;52.002;4.686;2022-08-21T02:28:09;101661.81;;;13.54;100.00
59337;BME280;45115;52.002;4.686;2022-08-21T02:30:41;101665.81;;;13.57;100.00
59337;BME280;45115;52.002;4.686;2022-08-21T02:33:09;101669.53;;;13.46;100.00
59337;BME280;45115;52.002;4.686;2022-08-21T02:35:36;101666.03;;;13.40;100.00
59337;BME280;45115;52.002;4.686;2022-08-21T02:38:05;101664.75;;;13.48;100.00
59337;BME280;45115;52.002;4.686;2022-08-21T02:40:36;101671.16;;;13.47;100.00
59337;BME280;45115;52.002;4.686;2022-08-21T02:43:04;101663.94;;;13.37;100.00
59337;BME280;45115;52.002;4.686;2022-08-21T02:45:32;101656.44;;;13.28;100.00
59337;BME280;45115;52.002;4.686;2022-08-21T02:48:03;101665.25;;;13.29;100.00
59337;BME280;45115;52.002;4.686;2022-08-21T02:50:32;101654.84;;;13.17;100.00
59337;BME280;45115;52.002;4.686;2022-08-21T02:52:59;101660.19;;;13.33;100.00
59337;BME280;45115;52.002;4.686;2022-08-21T02:55:28;101656.44;;;13.23;100.00
59337;BME280;45115;52.002;4.686;2022-08-21T02:57:56;101655.66;;;13.18;100.00
59337;BME280;45115;52.002;4.686;2022-08-21T03:00:26;101663.38;;;13.19;100.00
59337;BME280;45115;52.002;4.686;2022-08-21T03:02:53;101658.03;;;13.14;100.00
59337;BME280;45115;52.002;4.686;2022-08-21T03:05:23;101654.59;;;13.24;100.00
59337;BME280;45115;52.002;4.686;2022-08-21T03:07:50;101658.03;;;13.24;100.00
59337;BME280;45115;52.002;4.686;2022-08-21T03:10:19;101658.03;;;13.24;100.00
59337;BME280;45115;52.002;4.686;2022-08-21T03:12:46;101657.78;;;13.21;100.00
59337;BME280;45115;52.002;4.686;2022-08-21T03:15:14;101653.00;;;13.23;100.00
59337;BME280;45115;52.002;4.686;2022-08-21T03:17:42;101642.88;;;13.35;100.00
59337;BME280;45115;52.002;4.686;2022-08-21T03:20:09;101642.34;;;13.38;100.00
59337;BME280;45115;52.002;4.686;2022-08-21T03:22:37;101636.19;;;13.33;100.00
59337;BME280;45115;52.002;4.686;2022-08-21T03:25:05;101631.13;;;13.31;100.00
59337;BME280;45115;52.002;4.686;2022-08-21T03:27:32;101626.88;;;13.30;100.00
59337;BME280;45115;52.002;4.686;2022-08-21T03:29:59;101627.69;;;13.31;100.00
59337;BME280;45115;52.002;4.686;2022-08-21T03:32:26;101630.88;;;13.22;100.00
59337;BME280;45115;52.002;4.686;2022-08-21T03:34:54;101635.13;;;13.18;100.00
59337;BME280;45115;52.002;4.686;2022-08-21T03:37:20;101630.84;;;13.12;100.00
59337;BME280;45115;52.002;4.686;2022-08-21T03:39:48;101631.38;;;13.09;100.00
59337;BME280;45115;52.002;4.686;2022-08-21T03:42:15;101630.59;;;13.08;100.00
59337;BME280;45115;52.002;4.686;2022-08-21T03:44:43;101631.66;;;13.07;100.00
59337;BME280;45115;52.002;4.686;2022-08-21T03:47:10;101623.66;;;13.02;100.00
59337;BME280;45115;52.002;4.686;2022-08-21T03:49:36;101632.19;;;12.99;100.00
59337;BME280;45115;52.002;4.686;2022-08-21T03:52:03;101638.59;;;13.03;100.00
59337;BME280;45115;52.002;4.686;2022-08-21T03:54:30;101630.34;;;13.15;100.00
59337;BME280;45115;52.002;4.686;2022-08-21T03:56:58;101629.25;;;13.06;100.00
59337;BME280;45115;52.002;4.686;2022-08-21T03:59:25;101627.66;;;12.94;100.00
59337;BME280;45115;52.002;4.686;2022-08-21T04:01:53;101627.38;;;12.85;100.00
59337;BME280;45115;52.002;4.686;2022-08-21T04:04:21;101624.16;;;12.78;100.00
59337;BME280;45115;52.002;4.686;2022-08-21T04:06:47;101623.88;;;12.74;100.00
59337;BME280;45115;52.002;4.686;2022-08-21T04:09:15;101623.63;;;12.76;100.00
59337;BME280;45115;52.002;4.686;2022-08-21T04:11:41;101635.84;;;12.72;100.00
59337;BME280;45115;52.002;4.686;2022-08-21T04:14:09;101631.84;;;12.69;100.00
59337;BME280;45115;52.002;4.686;2022-08-21T04:16:36;101634.25;;;12.71;100.00
59337;BME280;45115;52.002;4.686;2022-08-21T04:19:03;101636.66;;;12.72;100.00
59337;BME280;45115;52.002;4.686;2022-08-21T04:21:30;101634.81;;;12.83;100.00
59337;BME280;45115;52.002;4.686;2022-08-21T04:23:57;101638.53;;;12.82;100.00
59337;BME280;45115;52.002;4.686;2022-08-21T04:26:24;101631.63;;;12.81;100.00
59337;BME280;45115;52.002;4.686;2022-08-21T04:28:51;101631.34;;;12.78;100.00
59337;BME280;45115;52.002;4.686;2022-08-21T04:31:19;101630.78;;;12.70;100.00
59337;BME280;45115;52.002;4.686;2022-08-21T04:33:46;101633.97;;;12.67;100.00
59337;BME280;45115;52.002;4.686;2022-08-21T04:36:13;101642.00;;;12.78;100.00
59337;BME280;45115;52.002;4.686;2022-08-21T04:38:39;101638.03;;;12.85;100.00
59337;BME280;45115;52.002;4.686;2022-08-21T04:41:06;101651.88;;;12.87;100.00
59337;BME280;45115;52.002;4.686;2022-08-21T04:43:33;101649.22;;;12.93;100.00
59337;BME280;45115;52.002;4.686;2022-08-21T04:45:59;101657.47;;;12.96;100.00
59337;BME280;45115;52.002;4.686;2022-08-21T04:48:28;101658.81;;;12.99;100.00
59337;BME280;45115;52.002;4.686;2022-08-21T04:50:56;101657.47;;;13.01;100.00
59337;BME280;45115;52.002;4.686;2022-08-21T04:53:27;101657.22;;;13.03;100.00
59337;BME280;45115;52.002;4.686;2022-08-21T04:55:57;101653.50;;;13.04;100.00
59337;BME280;45115;52.002;4.686;2022-08-21T04:58:28;101658.03;;;13.14;100.00
59337;BME280;45115;52.002;4.686;2022-08-21T05:00:58;101663.91;;;13.21;100.00
59337;BME280;45115;52.002;4.686;2022-08-21T05:03:25;101667.91;;;13.29;100.00
59337;BME280;45115;52.002;4.686;2022-08-21T05:05:53;101668.19;;;13.33;100.00
59337;BME280;45115;52.002;4.686;2022-08-21T05:08:24;101663.94;;;13.37;100.00
59337;BME280;45115;52.002;4.686;2022-08-21T05:10:51;101676.75;;;13.50;100.00
59337;BME280;45115;52.002;4.686;2022-08-21T05:13:18;101665.56;;;13.59;100.00
59337;BME280;45115;52.002;4.686;2022-08-21T05:15:45;101660.47;;;13.67;100.00
59337;BME280;45115;52.002;4.686;2022-08-21T05:18:12;101658.63;;;13.78;100.00
59337;BME280;45115;52.002;4.686;2022-08-21T05:20:39;101659.63;;;13.88;100.00
59337;BME280;45115;52.002;4.686;2022-08-21T05:23:09;101657.75;;;13.99;100.00
59337;BME280;45115;52.002;4.686;2022-08-21T05:25:36;101671.09;;;14.04;100.00
59337;BME280;45115;52.002;4.686;2022-08-21T05:28:04;101676.66;;;14.13;100.00
59337;BME280;45115;52.002;4.686;2022-08-21T05:30:31;101673.72;;;14.25;100.00
59337;BME280;45115;52.002;4.686;2022-08-21T05:32:58;101673.16;;;14.38;100.00
59337;BME280;45115;52.002;4.686;2022-08-21T05:35:26;101674.41;;;14.51;100.00
59337;BME280;45115;52.002;4.686;2022-08-21T05:37:53;101667.69;;;14.59;100.00
59337;BME280;45115;52.002;4.686;2022-08-21T05:40:21;101668.44;;;14.70;100.00
59337;BME280;45115;52.002;4.686;2022-08-21T05:42:48;101674.28;;;14.82;100.00
59337;BME280;45115;52.002;4.686;2022-08-21T05:45:15;101672.59;;;14.97;100.00
59337;BME280;45115;52.002;4.686;2022-08-21T05:47:42;101671.75;;;15.07;100.00
59337;BME280;45115;52.002;4.686;2022-08-21T05:50:09;101675.97;;;15.18;100.00
59337;BME280;45115;52.002;4.686;2022-08-21T05:52:35;101678.28;;;15.25;100.00
59337;BME280;45115;52.002;4.686;2022-08-21T05:55:03;101686.53;;;15.34;100.00
59337;BME280;45115;52.002;4.686;2022-08-21T05:57:31;101676.56;;;15.45;100.00
59337;BME280;45115;52.002;4.686;2022-08-21T05:59:57;101672.72;;;15.56;100.00
59337;BME280;45115;52.002;4.686;2022-08-21T06:02:25;101675.25;;;15.72;100.00
59337;BME280;45115;52.002;4.686;2022-08-21T06:04:51;101663.91;;;15.85;100.00
59337;BME280;45115;52.002;4.686;2022-08-21T06:07:18;101669.97;;;15.96;100.00
59337;BME280;45115;52.002;4.686;2022-08-21T06:09:44;101664.00;;;16.04;100.00
59337;BME280;45115;52.002;4.686;2022-08-21T06:12:12;101662.72;;;16.21;100.00
59337;BME280;45115;52.002;4.686;2022-08-21T06:14:41;101659.94;;;16.31;100.00
59337;BME280;45115;52.002;4.686;2022-08-21T06:17:10;101658.16;;;16.46;100.00
59337;BME280;45115;52.002;4.686;2022-08-21T06:19:38;101657.16;;;16.61;100.00
59337;BME280;45115;52.002;4.686;2022-08-21T06:22:04;101659.69;;;16.71;100.00
59337;BME280;45115;52.002;4.686;2022-08-21T06:24:32;101656.50;;;16.89;100.00
59337;BME280;45115;52.002;4.686;2022-08-21T06:27:04;101659.03;;;16.99;100.00
59337;BME280;45115;52.002;4.686;2022-08-21T06:29:31;101659.94;;;17.13;100.00
59337;BME280;45115;52.002;4.686;2022-08-21T06:32:00;101658.69;;;17.25;100.00
59337;BME280;45115;52.002;4.686;2022-08-21T06:34:27;101665.19;;;17.38;100.00
59337;BME280;45115;52.002;4.686;2022-08-21T06:36:53;101659.44;;;17.45;100.00
59337;BME280;45115;52.002;4.686;2022-08-21T06:39:21;101659.47;;;17.59;100.00
59337;BME280;45115;52.002;4.686;2022-08-21T06:41:48;101659.78;;;17.71;100.00
59337;BME280;45115;52.002;4.686;2022-08-21T06:44:16;101652.53;;;17.86;100.00
59337;BME280;45115;52.002;4.686;2022-08-21T06:46:43;101649.56;;;18.01;100.00
59337;BME280;45115;52.002;4.686;2022-08-21T06:49:11;101649.56;;;18.29;100.00
59337;BME280;45115;52.002;4.686;2022-08-21T06:51:38;101660.09;;;18.54;100.00
59337;BME280;45115;52.002;4.686;2022-08-21T06:54:04;101668.13;;;18.54;100.00
59337;BME280;45115;52.002;4.686;2022-08-21T06:56:31;101661.16;;;18.67;100.00
59337;BME280;45115;52.002;4.686;2022-08-21T06:59:00;101652.84;;;18.91;100.00
59337;BME280;45115;52.002;4.686;2022-08-21T07:01:27;101659.88;;;19.24;100.00
59337;BME280;45115;52.002;4.686;2022-08-21T07:03:53;101660.69;;;19.56;100.00
59337;BME280;45115;52.002;4.686;2022-08-21T07:06:21;101656.25;;;19.92;97.85
59337;BME280;45115;52.002;4.686;2022-08-21T07:08:48;101657.94;;;20.20;95.38
59337;BME280;45115;52.002;4.686;2022-08-21T07:11:18;101654.94;;;20.30;94.01
59337;BME280;45115;52.002;4.686;2022-08-21T07:13:45;101660.28;;;20.03;93.38
59337;BME280;45115;52.002;4.686;2022-08-21T07:16:12;101653.56;;;19.92;93.94
59337;BME280;45115;52.002;4.686;2022-08-21T07:18:39;101660.59;;;20.02;94.54
59337;BME280;45115;52.002;4.686;2022-08-21T07:21:06;101667.16;;;20.27;94.11
59337;BME280;45115;52.002;4.686;2022-08-21T07:23:38;101672.91;;;20.70;90.77
59337;BME280;45115;52.002;4.686;2022-08-21T07:26:06;101670.25;;;20.96;87.69
59337;BME280;45115;52.002;4.686;2022-08-21T07:28:33;101673.09;;;21.27;86.76
59337;BME280;45115;52.002;4.686;2022-08-21T07:31:01;101671.88;;;21.54;83.85
59337;BME280;45115;52.002;4.686;2022-08-21T07:33:30;101676.63;;;21.66;82.93
59337;BME280;45115;52.002;4.686;2022-08-21T07:35:57;101668.19;;;21.76;82.94
59337;BME280;45115;52.002;4.686;2022-08-21T07:38:24;101674.75;;;22.06;82.36
59337;BME280;45115;52.002;4.686;2022-08-21T07:40:55;101665.25;;;22.72;79.66
59337;BME280;45115;52.002;4.686;2022-08-21T07:43:24;101672.66;;;23.30;75.82
59337;BME280;45115;52.002;4.686;2022-08-21T07:45:51;101667.00;;;23.94;73.11
59337;BME280;45115;52.002;4.686;2022-08-21T07:48:19;101671.97;;;24.30;69.47
59337;BME280;45115;52.002;4.686;2022-08-21T07:50:46;101674.25;;;24.68;67.06
59337;BME280;45115;52.002;4.686;2022-08-21T07:53:13;101664.47;;;25.08;66.25
59337;BME280;45115;52.002;4.686;2022-08-21T07:55:40;101670.97;;;25.20;64.52
59337;BME280;45115;52.002;4.686;2022-08-21T07:58:08;101673.00;;;25.39;63.34
59337;BME280;45115;52.002;4.686;2022-08-21T08:00:35;101668.16;;;25.32;63.53
59337;BME280;45115;52.002;4.686;2022-08-21T08:03:02;101681.06;;;25.52;62.67
59337;BME280;45115;52.002;4.686;2022-08-21T08:05:30;101676.34;;;25.48;62.28
59337;BME280;45115;52.002;4.686;2022-08-21T08:07:57;101676.63;;;25.76;62.16
59337;BME280;45115;52.002;4.686;2022-08-21T08:10:24;101676.47;;;25.68;60.96
59337;BME280;45115;52.002;4.686;2022-08-21T08:12:52;101679.06;;;25.81;61.08
59337;BME280;45115;52.002;4.686;2022-08-21T08:15:23;101679.69;;;25.90;59.72
59337;BME280;45115;52.002;4.686;2022-08-21T08:17:49;101676.97;;;25.74;59.68
59337;BME280;45115;52.002;4.686;2022-08-21T08:20:17;101674.13;;;25.86;60.67
59337;BME280;45115;52.002;4.686;2022-08-21T08:22:45;101674.44;;;25.81;60.05
59337;BME280;45115;52.002;4.686;2022-08-21T08:25:13;101665.06;;;25.79;60.04
59337;BME280;45115;52.002;4.686;2022-08-21T08:27:41;101674.09;;;25.67;59.63
59337;BME280;45115;52.002;4.686;2022-08-21T08:30:11;101668.09;;;25.45;58.93
59337;BME280;45115;52.002;4.686;2022-08-21T08:32:40;101671.06;;;25.24;60.41
59337;BME280;45115;52.002;4.686;2022-08-21T08:35:09;101670.34;;;25.55;59.87
59337;BME280;45115;52.002;4.686;2022-08-21T08:37:36;101660.50;;;25.67;58.95
59337;BME280;45115;52.002;4.686;2022-08-21T08:40:06;101659.97;;;25.77;58.80
59337;BME280;45115;52.002;4.686;2022-08-21T08:42:34;101654.88;;;26.11;58.10
59337;BME280;45115;52.002;4.686;2022-08-21T08:45:04;101657.81;;;26.38;56.57
59337;BME280;45115;52.002;4.686;2022-08-21T08:47:35;101658.88;;;26.73;55.03
59337;BME280;45115;52.002;4.686;2022-08-21T08:50:05;101659.44;;;26.07;55.56
59337;BME280;45115;52.002;4.686;2022-08-21T08:52:33;101661.03;;;25.56;56.91
59337;BME280;45115;52.002;4.686;2022-08-21T08:55:03;101654.34;;;25.54;57.04
59337;BME280;45115;52.002;4.686;2022-08-21T08:57:31;101656.50;;;25.16;57.21
59337;BME280;45115;52.002;4.686;2022-08-21T09:00:03;101650.66;;;25.30;57.56
59337;BME280;45115;52.002;4.686;2022-08-21T09:02:31;101653.66;;;25.41;57.77
59337;BME280;45115;52.002;4.686;2022-08-21T09:05:00;101652.44;;;25.54;58.04
59337;BME280;45115;52.002;4.686;2022-08-21T09:07:47;101651.44;;;25.46;56.96
59337;BME280;45115;52.002;4.686;2022-08-21T09:10:19;101651.78;;;25.29;56.80
59337;BME280;45115;52.002;4.686;2022-08-21T09:12:52;101652.56;;;25.13;55.47
59337;BME280;45115;52.002;4.686;2022-08-21T09:15:29;101648.63;;;25.11;55.62
59337;BME280;45115;52.002;4.686;2022-08-21T09:18:12;101651.34;;;25.43;56.38
59337;BME280;45115;52.002;4.686;2022-08-21T09:20:47;101650.06;;;25.85;55.11
59337;BME280;45115;52.002;4.686;2022-08-21T09:23:24;101653.16;;;26.39;52.85
59337;BME280;45115;52.002;4.686;2022-08-21T09:25:59;101653.09;;;26.55;51.72
59337;BME280;45115;52.002;4.686;2022-08-21T09:28:31;101653.94;;;26.79;51.19
59337;BME280;45115;52.002;4.686;2022-08-21T09:30:59;101654.66;;;26.00;51.47
59337;BME280;45115;52.002;4.686;2022-08-21T09:33:31;101647.69;;;25.83;52.65
59337;BME280;45115;52.002;4.686;2022-08-21T09:35:59;101648.34;;;25.96;51.85
59337;BME280;45115;52.002;4.686;2022-08-21T09:38:29;101645.47;;;25.89;52.27
59337;BME280;45115;52.002;4.686;2022-08-21T09:41:01;101655.91;;;26.23;52.16
59337;BME280;45115;52.002;4.686;2022-08-21T09:43:29;101653.41;;;26.50;51.20
59337;BME280;45115;52.002;4.686;2022-08-21T09:46:08;101661.81;;;26.64;51.53
59337;BME280;45115;52.002;4.686;2022-08-21T09:48:42;101655.81;;;26.95;49.79
59337;BME280;45115;52.002;4.686;2022-08-21T09:51:11;101647.94;;;26.50;51.34
59337;BME280;45115;52.002;4.686;2022-08-21T09:53:44;101655.91;;;27.02;50.75
59337;BME280;45115;52.002;4.686;2022-08-21T09:56:19;101648.41;;;27.42;48.52
59337;BME280;45115;52.002;4.686;2022-08-21T09:59:17;101648.72;;;28.14;47.46
59337;BME280;45115;52.002;4.686;2022-08-21T10:01:47;101653.31;;;28.37;45.38
59337;BME280;45115;52.002;4.686;2022-08-21T10:04:14;101653.66;;;28.35;45.62
59337;BME280;45115;52.002;4.686;2022-08-21T10:06:41;101650.34;;;27.92;45.93
59337;BME280;45115;52.002;4.686;2022-08-21T10:09:11;101655.16;;;27.48;47.37
59337;BME280;45115;52.002;4.686;2022-08-21T10:11:39;101657.22;;;27.08;47.54
59337;BME280;45115;52.002;4.686;2022-08-21T10:14:16;101659.59;;;26.31;49.86
59337;BME280;45115;52.002;4.686;2022-08-21T10:16:54;101663.25;;;25.22;55.11
59337;BME280;45115;52.002;4.686;2022-08-21T10:19:30;101654.09;;;24.41;57.51
59337;BME280;45115;52.002;4.686;2022-08-21T10:22:09;101654.38;;;24.11;59.05
59337;BME280;45115;52.002;4.686;2022-08-21T10:24:46;101651.31;;;23.87;57.15
59337;BME280;45115;52.002;4.686;2022-08-21T10:27:23;101646.00;;;24.16;57.75
59337;BME280;45115;52.002;4.686;2022-08-21T10:29:55;101641.47;;;23.70;61.27
59337;BME280;45115;52.002;4.686;2022-08-21T10:32:33;101653.28;;;22.94;64.52
59337;BME280;45115;52.002;4.686;2022-08-21T10:35:06;101647.75;;;22.69;66.27
59337;BME280;45115;52.002;4.686;2022-08-21T10:37:42;101635.13;;;22.61;66.40
59337;BME280;45115;52.002;4.686;2022-08-21T10:40:22;101640.56;;;22.74;67.15
59337;BME280;45115;52.002;4.686;2022-08-21T10:43:02;101640.81;;;22.81;67.01
59337;BME280;45115;52.002;4.686;2022-08-21T10:45:42;101636.81;;;22.87;66.38
59337;BME280;45115;52.002;4.686;2022-08-21T10:48:16;101635.28;;;23.11;65.88
59337;BME280;45115;52.002;4.686;2022-08-21T10:50:51;101629.78;;;23.20;66.29
59337;BME280;45115;52.002;4.686;2022-08-21T10:53:47;101639.66;;;23.03;65.28
59337;BME280;45115;52.002;4.686;2022-08-21T10:56:22;101637.63;;;23.00;64.99
59337;BME280;45115;52.002;4.686;2022-08-21T10:59:01;101637.00;;;23.16;63.52
59337;BME280;45115;52.002;4.686;2022-08-21T11:01:32;101634.66;;;23.27;63.63
59337;BME280;45115;52.002;4.686;2022-08-21T11:04:11;101634.38;;;23.07;63.58
59337;BME280;45115;52.002;4.686;2022-08-21T11:06:42;101633.09;;;22.92;62.11
59337;BME280;45115;52.002;4.686;2022-08-21T11:09:13;101643.00;;;22.88;61.94
59337;BME280;45115;52.002;4.686;2022-08-21T11:11:46;101635.47;;;22.93;61.52
59337;BME280;45115;52.002;4.686;2022-08-21T11:14:21;101647.78;;;23.03;61.20
59337;BME280;45115;52.002;4.686;2022-08-21T11:16:55;101646.69;;;23.17;60.55
59337;BME280;45115;52.002;4.686;2022-08-21T11:19:28;101643.38;;;23.32;60.97
59337;BME280;45115;52.002;4.686;2022-08-21T11:22:00;101644.63;;;23.47;58.78
59337;BME280;45115;52.002;4.686;2022-08-21T11:24:37;101639.56;;;23.71;57.53
59337;BME280;45115;52.002;4.686;2022-08-21T11:27:14;101647.69;;;23.83;56.76
59337;BME280;45115;52.002;4.686;2022-08-21T11:29:47;101650.50;;;23.74;57.90
59337;BME280;45115;52.002;4.686;2022-08-21T11:32:41;101651.06;;;23.68;57.96
59337;BME280;45115;52.002;4.686;2022-08-21T11:35:18;101636.28;;;23.53;57.56
59337;BME280;45115;52.002;4.686;2022-08-21T11:38:03;101650.53;;;23.62;58.25
59337;BME280;45115;52.002;4.686;2022-08-21T11:40:43;101655.34;;;23.56;57.94
59337;BME280;45115;52.002;4.686;2022-08-21T11:43:19;101656.28;;;23.85;58.46
59337;BME280;45115;52.002;4.686;2022-08-21T11:45:50;101653.56;;;23.73;58.17
59337;BME280;45115;52.002;4.686;2022-08-21T11:48:34;101659.09;;;23.64;57.48
59337;BME280;45115;52.002;4.686;2022-08-21T11:51:07;101657.63;;;23.54;57.95
59337;BME280;45115;52.002;4.686;2022-08-21T11:53:41;101655.94;;;23.62;57.45
59337;BME280;45115;52.002;4.686;2022-08-21T11:56:18;101662.47;;;23.48;57.26
59337;BME280;45115;52.002;4.686;2022-08-21T11:58:51;101659.78;;;23.61;56.57
59337;BME280;45115;52.002;4.686;2022-08-21T12:01:22;101663.03;;;23.67;56.45
59337;BME280;45115;52.002;4.686;2022-08-21T12:03:55;101655.50;;;23.72;57.29
59337;BME280;45115;52.002;4.686;2022-08-21T12:06:31;101656.72;;;24.00;56.68
59337;BME280;45115;52.002;4.686;2022-08-21T12:09:00;101662.16;;;24.00;56.44
59337;BME280;45115;52.002;4.686;2022-08-21T12:11:27;101662.06;;;24.09;54.37
59337;BME280;45115;52.002;4.686;2022-08-21T12:13:57;101656.13;;;24.32;54.77
59337;BME280;45115;52.002;4.686;2022-08-21T12:16:31;101652.63;;;24.72;52.23
59337;BME280;45115;52.002;4.686;2022-08-21T12:19:05;101652.59;;;24.85;49.98
59337;BME280;45115;52.002;4.686;2022-08-21T12:21:33;101662.50;;;24.64;51.45
59337;BME280;45115;52.002;4.686;2022-08-21T12:24:04;101658.97;;;24.23;51.87
59337;BME280;45115;52.002;4.686;2022-08-21T12:26:33;101656.28;;;23.85;52.42
59337;BME280;45115;52.002;4.686;2022-08-21T12:29:16;101663.25;;;23.99;51.81
59337;BME280;45115;52.002;4.686;2022-08-21T12:31:56;101670.16;;;24.62;50.46
59337;BME280;45115;52.002;4.686;2022-08-21T12:34:29;101657.78;;;24.90;49.73
59337;BME280;45115;52.002;4.686;2022-08-21T12:37:00;101664.97;;;24.98;48.52
59337;BME280;45115;52.002;4.686;2022-08-21T12:39:29;101669.50;;;25.39;46.01
59337;BME280;45115;52.002;4.686;2022-08-21T12:42:01;101677.88;;;25.33;45.41
59337;BME280;45115;52.002;4.686;2022-08-21T12:44:38;101677.81;;;24.73;45.65
59337;BME280;45115;52.002;4.686;2022-08-21T12:47:14;101678.84;;;24.39;45.86
59337;BME280;45115;52.002;4.686;2022-08-21T12:49:51;101676.50;;;24.66;45.88
59337;BME280;45115;52.002;4.686;2022-08-21T12:52:22;101668.69;;;25.22;45.55
59337;BME280;45115;52.002;4.686;2022-08-21T12:54:49;101668.38;;;25.72;45.29
59337;BME280;45115;52.002;4.686;2022-08-21T12:57:21;101674.75;;;25.96;45.73